Time;durP1;ratioP1;P1;durP2;ratioP2;P2;SDS_P1;SDS_P2;PMS_P1;PMS_P2;Temp;Humidity;BMP_temperature;BMP_pressure;BME280_temperature;BME280_humidity;BME280_pressure;Samples;Min_cycle;Max_cycle;Signal;HPM_P1;HPM_P2
2023/04/08 00:00:06;;;;;;;0.20;0.10;;;;;;;;;;4961671;28;20058;-78
2023/04/08 00:02:33;;;;;;;0.20;0.10;;;;;;;;;;4974315;28;20550;-78
2023/04/08 00:04:59;;;;;;;0.20;0.15;;;;;;;;;;4971891;28;20900;-79
2023/04/08 00:07:25;;;;;;;0.20;0.10;;;;;;;;;;4971662;28;20046;-77
2023/04/08 00:09:51;;;;;;;0.20;0.10;;;;;;;;;;4973879;28;20411;-79
2023/04/08 00:12:17;;;;;;;0.20;0.10;;;;;;;;;;4977375;28;20038;-79
2023/04/08 00:14:43;;;;;;;0.25;0.25;;;;;;;;;;4951650;28;20129;-78
2023/04/08 00:17:09;;;;;;;0.20;0.10;;;;;;;;;;4971271;28;20038;-79
2023/04/08 00:19:35;;;;;;;0.20;0.15;;;;;;;;;;4960650;28;20046;-79
2023/04/08 00:22:01;;;;;;;0.20;0.10;;;;;;;;;;4970766;28;20105;-78
2023/04/08 00:24:27;;;;;;;0.20;0.20;;;;;;;;;;4971218;28;20496;-79
2023/04/08 00:26:53;;;;;;;0.20;0.10;;;;;;;;;;4956106;28;20043;-78
2023/04/08 00:29:19;;;;;;;0.20;0.10;;;;;;;;;;4969095;28;20101;-78
2023/04/08 00:31:46;;;;;;;0.68;0.40;;;;;;;;;;4965649;28;20034;-78
2023/04/08 00:34:12;;;;;;;0.20;0.10;;;;;;;;;;4969116;28;20450;-79
2023/04/08 00:36:39;;;;;;;0.20;0.10;;;;;;;;;;4975176;28;20043;-78
2023/04/08 00:39:05;;;;;;;0.25;0.15;;;;;;;;;;4962366;28;21592;-77
2023/04/08 00:41:33;;;;;;;0.35;0.17;;;;;;;;;;4969736;28;20034;-79
2023/04/08 00:43:59;;;;;;;0.20;0.10;;;;;;;;;;4975513;28;20446;-78
2023/04/08 00:46:25;;;;;;;0.20;0.10;;;;;;;;;;4974282;28;20109;-78
2023/04/08 00:48:51;;;;;;;0.20;0.10;;;;;;;;;;4961440;28;20038;-78
2023/04/08 00:51:18;;;;;;;0.20;0.10;;;;;;;;;;4960570;28;20499;-78
2023/04/08 00:53:44;;;;;;;0.20;0.20;;;;;;;;;;4960605;28;20053;-77
2023/04/08 00:56:10;;;;;;;1.45;0.50;;;;;;;;;;4970825;28;20046;-78
2023/04/08 00:58:37;;;;;;;0.20;0.10;;;;;;;;;;4952671;28;20138;-78
2023/04/08 01:01:20;;;;;;;0.20;0.10;;;;;;;;;;4974835;28;20046;-79
2023/04/08 01:03:46;;;;;;;0.20;0.10;;;;;;;;;;4973105;28;20128;-78
2023/04/08 01:06:19;;;;;;;0.20;0.10;;;;;;;;;;4970614;28;21136;-77
2023/04/08 01:08:45;;;;;;;0.25;0.17;;;;;;;;;;4972555;28;20385;-78
2023/04/08 01:11:13;;;;;;;0.20;0.10;;;;;;;;;;4970339;28;20090;-78
2023/04/08 01:13:40;;;;;;;0.20;0.10;;;;;;;;;;4976384;28;20034;-79
2023/04/08 01:16:09;;;;;;;0.22;0.22;;;;;;;;;;4968697;28;20042;-79
2023/04/08 01:18:35;;;;;;;0.20;0.10;;;;;;;;;;4968152;28;20050;-78
2023/04/08 01:21:03;;;;;;;0.20;0.10;;;;;;;;;;4970399;28;20042;-78
2023/04/08 01:23:47;;;;;;;0.20;0.10;;;;;;;;;;4970315;28;20050;-78
2023/04/08 01:26:21;;;;;;;0.20;0.10;;;;;;;;;;4970138;28;20577;-78
2023/04/08 01:28:48;;;;;;;0.20;0.10;;;;;;;;;;4972022;28;20049;-79
2023/04/08 01:31:15;;;;;;;0.20;0.20;;;;;;;;;;4971558;28;20059;-78
2023/04/08 01:33:41;;;;;;;0.20;0.20;;;;;;;;;;4970093;28;20105;-78
2023/04/08 01:36:07;;;;;;;0.20;0.10;;;;;;;;;;4955103;28;20065;-78
2023/04/08 01:38:34;;;;;;;0.30;0.15;;;;;;;;;;4971314;28;20046;-79
2023/04/08 01:41:00;;;;;;;0.20;0.10;;;;;;;;;;4971957;28;20038;-77
2023/04/08 01:43:26;;;;;;;0.20;0.10;;;;;;;;;;4973514;28;20043;-79
2023/04/08 01:45:56;;;;;;;0.20;0.10;;;;;;;;;;4961769;28;20049;-78
2023/04/08 01:48:23;;;;;;;0.20;0.10;;;;;;;;;;4960004;28;20053;-79
2023/04/08 01:50:50;;;;;;;0.20;0.13;;;;;;;;;;4967935;28;20050;-78
2023/04/08 01:53:16;;;;;;;0.20;0.20;;;;;;;;;;4974815;28;20086;-78
2023/04/08 01:55:42;;;;;;;0.20;0.10;;;;;;;;;;4972323;28;20430;-80
2023/04/08 01:58:11;;;;;;;0.20;0.10;;;;;;;;;;4966407;28;20200;-79
2023/04/08 02:00:38;;;;;;;0.30;0.20;;;;;;;;;;4968786;28;20096;-78
2023/04/08 02:03:06;;;;;;;0.20;0.13;;;;;;;;;;4973913;28;20533;-78
2023/04/08 02:05:33;;;;;;;0.20;0.10;;;;;;;;;;4966586;28;20046;-78
2023/04/08 02:07:59;;;;;;;0.20;0.10;;;;;;;;;;4968770;28;20533;-78
2023/04/08 02:10:25;;;;;;;0.47;0.30;;;;;;;;;;4972241;28;20519;-77
2023/04/08 02:12:51;;;;;;;0.20;0.10;;;;;;;;;;4968542;28;20125;-78
2023/04/08 02:15:17;;;;;;;1.45;0.73;;;;;;;;;;4954839;28;20042;-78
2023/04/08 02:17:45;;;;;;;0.30;0.30;;;;;;;;;;4954199;28;20043;-78
2023/04/08 02:20:31;;;;;;;0.47;0.47;;;;;;;;;;4967536;28;20042;-77
2023/04/08 02:23:01;;;;;;;0.20;0.10;;;;;;;;;;4969396;28;20070;-80
2023/04/08 02:25:28;;;;;;;0.20;0.10;;;;;;;;;;4951578;28;20453;-79
2023/04/08 02:27:55;;;;;;;0.35;0.30;;;;;;;;;;4963551;28;20046;-78
2023/04/08 02:30:21;;;;;;;0.75;0.13;;;;;;;;;;4969538;28;20042;-79
2023/04/08 02:32:48;;;;;;;0.20;0.20;;;;;;;;;;4968022;28;20410;-78
2023/04/08 02:35:15;;;;;;;0.20;0.10;;;;;;;;;;4966632;28;20042;-78
2023/04/08 02:37:41;;;;;;;0.50;0.50;;;;;;;;;;4966914;28;20038;-79
2023/04/08 02:40:27;;;;;;;0.20;0.20;;;;;;;;;;4971219;28;20459;-78
2023/04/08 02:42:54;;;;;;;0.20;0.08;;;;;;;;;;4968044;28;20058;-79
2023/04/08 02:45:20;;;;;;;0.40;0.20;;;;;;;;;;4959458;28;20499;-80
2023/04/08 02:47:46;;;;;;;0.20;0.10;;;;;;;;;;4966720;28;20050;-78
2023/04/08 02:50:12;;;;;;;0.20;0.10;;;;;;;;;;4969243;28;20097;-78
2023/04/08 02:52:38;;;;;;;0.45;0.45;;;;;;;;;;4951339;28;20447;-80
2023/04/08 02:55:11;;;;;;;0.20;0.10;;;;;;;;;;4955336;28;20518;-79
2023/04/08 02:57:39;;;;;;;0.20;0.10;;;;;;;;;;4969144;28;20396;-79
2023/04/08 03:00:06;;;;;;;0.20;0.00;;;;;;;;;;4969476;28;20047;-78
2023/04/08 03:02:32;;;;;;;0.20;0.10;;;;;;;;;;4971698;28;20081;-79
2023/04/08 03:04:58;;;;;;;0.20;0.10;;;;;;;;;;4970310;28;20046;-78
2023/04/08 03:07:24;;;;;;;0.57;0.35;;;;;;;;;;4951535;28;20057;-78
2023/04/08 03:09:50;;;;;;;0.22;0.15;;;;;;;;;;4970449;28;20034;-78
2023/04/08 03:12:16;;;;;;;0.20;0.10;;;;;;;;;;4968182;28;20507;-79
2023/04/08 03:14:42;;;;;;;0.20;0.10;;;;;;;;;;4971423;28;20121;-78
2023/04/08 03:17:08;;;;;;;0.20;0.10;;;;;;;;;;4954340;28;20129;-78
2023/04/08 03:19:34;;;;;;;0.20;0.10;;;;;;;;;;4967948;28;20959;-78
2023/04/08 03:22:00;;;;;;;0.20;0.10;;;;;;;;;;4971932;28;20081;-79
2023/04/08 03:24:26;;;;;;;0.20;0.10;;;;;;;;;;4969780;28;20109;-79
2023/04/08 03:26:52;;;;;;;0.20;0.10;;;;;;;;;;4953644;28;20042;-78
2023/04/08 03:29:18;;;;;;;0.20;0.10;;;;;;;;;;4963640;28;20160;-80
2023/04/08 03:31:44;;;;;;;0.20;0.10;;;;;;;;;;4965815;28;20380;-78
2023/04/08 03:34:10;;;;;;;0.20;0.10;;;;;;;;;;4968862;28;20034;-78
2023/04/08 03:36:36;;;;;;;0.20;0.10;;;;;;;;;;4962956;28;20693;-79
2023/04/08 03:39:02;;;;;;;0.20;0.10;;;;;;;;;;4946064;28;20041;-79
2023/04/08 03:41:28;;;;;;;0.20;0.10;;;;;;;;;;4965661;28;20602;-80
2023/04/08 03:43:54;;;;;;;0.20;0.10;;;;;;;;;;4971240;28;20518;-78
2023/04/08 03:46:21;;;;;;;0.20;0.10;;;;;;;;;;4968092;28;20054;-79
2023/04/08 03:48:47;;;;;;;0.20;0.10;;;;;;;;;;4964657;28;20407;-79
2023/04/08 03:51:13;;;;;;;1.05;0.43;;;;;;;;;;4954443;28;20802;-78
2023/04/08 03:53:39;;;;;;;0.20;0.10;;;;;;;;;;4963961;28;20129;-78
2023/04/08 03:56:05;;;;;;;0.20;0.10;;;;;;;;;;4960088;28;20587;-79
2023/04/08 03:58:32;;;;;;;0.20;0.10;;;;;;;;;;4953897;28;22322;-79
2023/04/08 04:00:58;;;;;;;0.20;0.10;;;;;;;;;;4966671;28;20148;-78
2023/04/08 04:03:24;;;;;;;0.20;0.10;;;;;;;;;;4944968;28;20046;-79
2023/04/08 04:05:50;;;;;;;0.20;0.10;;;;;;;;;;4942683;28;20035;-78
2023/04/08 04:08:16;;;;;;;0.20;0.10;;;;;;;;;;4961125;28;20049;-80
2023/04/08 04:10:42;;;;;;;0.20;0.10;;;;;;;;;;4959594;28;20034;-79
2023/04/08 04:13:08;;;;;;;0.73;0.43;;;;;;;;;;4947066;28;20451;-81
2023/04/08 04:15:38;;;;;;;0.20;0.10;;;;;;;;;;4963814;28;20046;-80
2023/04/08 04:18:04;;;;;;;0.20;0.10;;;;;;;;;;4957638;28;20053;-79
2023/04/08 04:20:30;;;;;;;0.65;0.65;;;;;;;;;;4945159;28;21464;-78
2023/04/08 04:22:56;;;;;;;0.20;0.20;;;;;;;;;;4946789;28;20038;-79
2023/04/08 04:25:22;;;;;;;0.38;0.28;;;;;;;;;;4958305;28;20161;-79
2023/04/08 04:27:48;;;;;;;1.00;0.52;;;;;;;;;;4963782;28;20064;-80
2023/04/08 04:30:14;;;;;;;0.20;0.10;;;;;;;;;;4968113;28;20066;-79
2023/04/08 04:32:41;;;;;;;0.20;0.10;;;;;;;;;;4970637;28;20038;-78
2023/04/08 04:35:08;;;;;;;0.20;0.20;;;;;;;;;;4954177;28;20679;-79
2023/04/08 04:37:35;;;;;;;0.20;0.10;;;;;;;;;;4966700;28;20126;-78
2023/04/08 04:40:01;;;;;;;0.30;0.30;;;;;;;;;;4970686;28;20434;-78
2023/04/08 04:42:27;;;;;;;0.20;0.20;;;;;;;;;;4968864;28;20038;-78
2023/04/08 04:44:53;;;;;;;0.20;0.20;;;;;;;;;;4972213;28;20049;-78
2023/04/08 04:47:19;;;;;;;0.55;0.25;;;;;;;;;;4965393;28;20038;-78
2023/04/08 04:49:45;;;;;;;0.20;0.10;;;;;;;;;;4966829;28;20120;-78
2023/04/08 04:52:11;;;;;;;0.20;0.10;;;;;;;;;;4969231;28;20042;-78
2023/04/08 04:54:37;;;;;;;0.30;0.22;;;;;;;;;;4974425;28;20043;-78
2023/04/08 04:57:03;;;;;;;0.20;0.10;;;;;;;;;;4972275;28;20043;-79
2023/04/08 04:59:29;;;;;;;0.20;0.10;;;;;;;;;;4957529;28;20050;-78
2023/04/08 05:01:58;;;;;;;0.20;0.10;;;;;;;;;;4953478;28;20042;-78
2023/04/08 05:04:25;;;;;;;0.20;0.10;;;;;;;;;;4999115;23;20053;-78
2023/04/08 05:06:51;;;;;;;0.20;0.10;;;;;;;;;;4966913;28;20042;-78
2023/04/08 05:09:17;;;;;;;0.20;0.10;;;;;;;;;;4986272;28;20066;-78
2023/04/08 05:11:43;;;;;;;0.20;0.10;;;;;;;;;;4978402;28;20042;-78
2023/04/08 05:14:09;;;;;;;0.20;0.10;;;;;;;;;;5002493;28;20073;-79
2023/04/08 05:16:35;;;;;;;0.20;0.20;;;;;;;;;;4965915;28;20038;-77
2023/04/08 05:19:01;;;;;;;0.20;0.10;;;;;;;;;;4980675;28;20038;-78
2023/04/08 05:21:27;;;;;;;0.20;0.10;;;;;;;;;;5000789;28;20049;-78
2023/04/08 05:23:53;;;;;;;0.20;0.10;;;;;;;;;;4975158;28;20039;-79
2023/04/08 05:26:23;;;;;;;0.40;0.30;;;;;;;;;;4973912;28;20038;-76
2023/04/08 05:28:50;;;;;;;0.20;0.10;;;;;;;;;;4983519;28;20046;-78
2023/04/08 05:31:16;;;;;;;0.20;0.10;;;;;;;;;;4961356;28;20488;-78
2023/04/08 05:33:42;;;;;;;0.20;0.20;;;;;;;;;;4970398;28;20038;-78
2023/04/08 05:36:08;;;;;;;0.55;0.40;;;;;;;;;;4990974;28;20043;-77
2023/04/08 05:38:34;;;;;;;0.20;0.10;;;;;;;;;;4989923;28;20523;-77
2023/04/08 05:41:00;;;;;;;0.40;0.40;;;;;;;;;;4975620;28;20327;-79
2023/04/08 05:43:26;;;;;;;0.20;0.10;;;;;;;;;;4982546;28;20043;-79
2023/04/08 05:45:52;;;;;;;0.20;0.10;;;;;;;;;;4955871;28;20143;-79
2023/04/08 05:48:18;;;;;;;0.85;0.57;;;;;;;;;;4994812;28;20042;-78
2023/04/08 05:50:45;;;;;;;0.55;0.25;;;;;;;;;;4971596;28;20230;-78
2023/04/08 05:53:11;;;;;;;0.20;0.10;;;;;;;;;;4979656;28;20128;-79
2023/04/08 05:55:37;;;;;;;0.20;0.20;;;;;;;;;;4974191;28;20162;-80
2023/04/08 05:58:03;;;;;;;0.20;0.10;;;;;;;;;;4981792;28;20047;-76
2023/04/08 06:00:29;;;;;;;0.20;0.20;;;;;;;;;;4958040;28;20041;-79
2023/04/08 06:02:55;;;;;;;0.20;0.10;;;;;;;;;;4964443;28;20278;-77
2023/04/08 06:05:21;;;;;;;0.20;0.10;;;;;;;;;;4984375;28;20445;-79
2023/04/08 06:07:47;;;;;;;0.20;0.10;;;;;;;;;;4968265;28;20054;-79
2023/04/08 06:10:13;;;;;;;0.63;0.30;;;;;;;;;;5005835;28;20101;-79
2023/04/08 06:12:39;;;;;;;0.20;0.10;;;;;;;;;;4973133;28;20062;-78
2023/04/08 06:15:09;;;;;;;0.20;0.20;;;;;;;;;;4967778;28;20122;-78
2023/04/08 06:17:38;;;;;;;0.77;0.32;;;;;;;;;;4969963;28;20066;-78
2023/04/08 06:20:05;;;;;;;0.20;0.10;;;;;;;;;;4974770;28;20133;-77
2023/04/08 06:22:31;;;;;;;1.02;0.60;;;;;;;;;;4960902;28;20050;-78
2023/04/08 06:24:57;;;;;;;0.20;0.10;;;;;;;;;;4951134;28;20136;-79
2023/04/08 06:27:23;;;;;;;0.20;0.20;;;;;;;;;;4962512;28;20692;-76
2023/04/08 06:29:50;;;;;;;0.20;0.10;;;;;;;;;;4973416;28;20055;-79
2023/04/08 06:32:16;;;;;;;0.20;0.10;;;;;;;;;;4960846;28;22103;-79
2023/04/08 06:34:45;;;;;;;0.20;0.20;;;;;;;;;;4959425;28;20030;-79
2023/04/08 06:37:11;;;;;;;0.73;0.47;;;;;;;;;;4961868;28;20057;-79
2023/04/08 06:39:36;;;;;;;0.20;0.10;;;;;;;;;;4978934;28;20042;-79
2023/04/08 06:42:03;;;;;;;0.30;0.30;;;;;;;;;;4992244;28;20098;-79
2023/04/08 06:44:29;;;;;;;0.60;0.40;;;;;;;;;;4993921;28;20387;-77
2023/04/08 06:46:55;;;;;;;0.68;0.35;;;;;;;;;;4969263;28;20054;-80
2023/04/08 06:49:21;;;;;;;0.20;0.10;;;;;;;;;;4976461;28;20041;-78
2023/04/08 06:51:47;;;;;;;1.10;0.55;;;;;;;;;;4982287;28;20045;-78
2023/04/08 06:54:13;;;;;;;0.63;0.20;;;;;;;;;;4997814;28;20046;-78
2023/04/08 06:56:39;;;;;;;0.25;0.15;;;;;;;;;;4962920;28;20045;-77
2023/04/08 06:59:05;;;;;;;0.30;0.20;;;;;;;;;;4963017;28;20181;-77
2023/04/08 07:01:31;;;;;;;0.20;0.10;;;;;;;;;;4992803;28;20079;-78
2023/04/08 07:03:57;;;;;;;0.20;0.10;;;;;;;;;;4971006;28;20049;-76
2023/04/08 07:06:24;;;;;;;0.20;0.10;;;;;;;;;;4971161;28;20058;-80
2023/04/08 07:08:50;;;;;;;0.20;0.10;;;;;;;;;;4952920;28;20077;-78
2023/04/08 07:11:16;;;;;;;0.20;0.10;;;;;;;;;;4983326;28;20039;-78
2023/04/08 07:13:42;;;;;;;0.20;0.10;;;;;;;;;;5003058;28;20038;-79
2023/04/08 07:16:08;;;;;;;0.82;0.30;;;;;;;;;;4972296;28;20050;-80
2023/04/08 07:18:35;;;;;;;0.20;0.10;;;;;;;;;;4983318;28;20031;-79
2023/04/08 07:21:01;;;;;;;0.40;0.30;;;;;;;;;;4980903;28;20655;-79
2023/04/08 07:23:27;;;;;;;0.20;0.10;;;;;;;;;;4961098;28;20418;-80
2023/04/08 07:25:53;;;;;;;0.30;0.28;;;;;;;;;;4996626;28;20415;-77
2023/04/08 07:28:19;;;;;;;0.45;0.35;;;;;;;;;;4967625;28;20046;-78
2023/04/08 07:30:45;;;;;;;0.20;0.10;;;;;;;;;;4971060;28;20259;-79
2023/04/08 07:33:12;;;;;;;0.20;0.10;;;;;;;;;;4996254;28;20043;-79
2023/04/08 07:35:38;;;;;;;0.20;0.10;;;;;;;;;;4994402;28;20049;-79
2023/04/08 07:38:10;;;;;;;0.20;0.10;;;;;;;;;;4984707;28;20070;-79
2023/04/08 07:40:36;;;;;;;0.20;0.10;;;;;;;;;;4995827;28;20070;-76
2023/04/08 07:43:02;;;;;;;0.20;0.10;;;;;;;;;;4981134;28;20074;-77
2023/04/08 07:45:28;;;;;;;0.38;0.38;;;;;;;;;;4966672;28;20089;-80
2023/04/08 07:47:54;;;;;;;0.20;0.10;;;;;;;;;;4964123;28;20105;-78
2023/04/08 07:50:20;;;;;;;0.30;0.30;;;;;;;;;;4966526;28;20436;-77
2023/04/08 07:52:46;;;;;;;0.20;0.13;;;;;;;;;;4987049;28;20050;-78
2023/04/08 07:55:12;;;;;;;0.20;0.10;;;;;;;;;;4975234;28;20045;-79
2023/04/08 07:57:38;;;;;;;0.55;0.30;;;;;;;;;;4965884;28;20082;-79
2023/04/08 08:00:04;;;;;;;0.30;0.22;;;;;;;;;;4955309;28;20038;-77
2023/04/08 08:02:30;;;;;;;0.35;0.25;;;;;;;;;;4957405;28;20043;-79
2023/04/08 08:04:56;;;;;;;0.20;0.10;;;;;;;;;;4951665;28;20102;-80
2023/04/08 08:07:22;;;;;;;0.20;0.17;;;;;;;;;;4966501;28;20106;-81
2023/04/08 08:09:48;;;;;;;0.40;0.40;;;;;;;;;;4950847;28;20082;-78
2023/04/08 08:12:14;;;;;;;3.95;0.40;;;;;;;;;;4997103;28;20554;-80
2023/04/08 08:14:40;;;;;;;0.28;0.22;;;;;;;;;;4990935;28;20087;-79
2023/04/08 08:17:06;;;;;;;0.40;0.40;;;;;;;;;;4963983;28;20038;-79
2023/04/08 08:19:32;;;;;;;0.20;0.10;;;;;;;;;;4984923;28;20174;-77
2023/04/08 08:21:59;;;;;;;0.20;0.10;;;;;;;;;;4983811;28;21226;-78
2023/04/08 08:24:25;;;;;;;1.10;0.55;;;;;;;;;;4987010;28;21109;-80
2023/04/08 08:26:51;;;;;;;0.20;0.10;;;;;;;;;;4971278;28;20066;-79
2023/04/08 08:29:17;;;;;;;0.20;0.13;;;;;;;;;;4981261;28;20035;-77
2023/04/08 08:31:43;;;;;;;0.65;0.30;;;;;;;;;;4997553;28;20155;-78
2023/04/08 08:34:09;;;;;;;0.20;0.10;;;;;;;;;;5000612;28;20030;-78
2023/04/08 08:36:35;;;;;;;0.30;0.30;;;;;;;;;;4978039;28;20034;-79
2023/04/08 08:39:01;;;;;;;0.25;0.25;;;;;;;;;;4985056;28;20068;-80
2023/04/08 08:41:32;;;;;;;0.50;0.22;;;;;;;;;;4999355;28;20049;-80
2023/04/08 08:43:59;;;;;;;0.20;0.10;;;;;;;;;;4979139;28;20133;-79
2023/04/08 08:46:25;;;;;;;0.73;0.57;;;;;;;;;;4976593;28;20042;-80
2023/04/08 08:48:51;;;;;;;0.50;0.30;;;;;;;;;;4996233;28;20035;-80
2023/04/08 08:51:17;;;;;;;0.75;0.45;;;;;;;;;;4970796;28;20078;-80
2023/04/08 08:53:44;;;;;;;0.20;0.10;;;;;;;;;;4968350;28;20490;-79
2023/04/08 08:56:11;;;;;;;0.20;0.10;;;;;;;;;;4972932;28;20632;-79
2023/04/08 08:58:38;;;;;;;0.45;0.40;;;;;;;;;;4981933;28;20103;-79
2023/04/08 09:01:23;;;;;;;0.20;0.10;;;;;;;;;;4973193;28;20090;-77
2023/04/08 09:04:05;;;;;;;3.28;0.47;;;;;;;;;;4980980;28;20035;-80
2023/04/08 09:06:32;;;;;;;0.35;0.20;;;;;;;;;;4966382;28;20058;-81
2023/04/08 09:08:57;;;;;;;0.20;0.20;;;;;;;;;;4969578;28;20042;-80
2023/04/08 09:11:24;;;;;;;0.20;0.10;;;;;;;;;;4970814;28;20050;-79
2023/04/08 09:13:50;;;;;;;0.20;0.10;;;;;;;;;;4964577;28;20081;-80
2023/04/08 09:16:19;;;;;;;0.28;0.28;;;;;;;;;;4977096;28;20066;-79
2023/04/08 09:18:47;;;;;;;1.75;0.52;;;;;;;;;;4979233;28;20041;-79
2023/04/08 09:21:13;;;;;;;0.20;0.20;;;;;;;;;;4968079;28;20067;-78
2023/04/08 09:23:50;;;;;;;0.20;0.10;;;5.60;99.90;;;;;;4958760;28;20032;-81
2023/04/08 09:26:21;;;;;;;0.43;0.43;;;;;;;;;;4995177;28;20050;-77
2023/04/08 09:29:03;;;;;;;0.30;0.30;;;;;;;;;;4990766;28;20133;-81
2023/04/08 09:31:30;;;;;;;0.20;0.10;;;;;;;;;;4983153;28;20680;-82
2023/04/08 09:34:03;;;;;;;0.20;0.10;;;;;;;;;;4978168;28;20031;-78
2023/04/08 09:36:29;;;;;;;0.20;0.20;;;;;;;;;;4986617;28;20049;-81
2023/04/08 09:38:55;;;;;;;0.40;0.30;;;;;;;;;;4956663;28;20415;-81
2023/04/08 09:41:25;;;;;;;0.22;0.22;;;;;;;;;;4978593;28;20038;-82
2023/04/08 09:43:53;;;;;;;0.30;0.28;;;;;;;;;;4958825;28;20148;-82
2023/04/08 09:46:25;;;;;;;0.28;0.28;;;;;;;;;;4982834;28;20059;-81
2023/04/08 09:49:13;;;;;;;0.30;0.30;;;;;;;;;;4994780;28;20669;-82
2023/04/08 09:51:49;;;;;;;0.28;0.28;;;;;;;;;;4968648;28;20074;-82
2023/04/08 09:54:21;;;;;;;0.20;0.10;;;;;;;;;;4984642;28;20578;-79
2023/04/08 09:56:51;;;;;;;0.20;0.20;;;;;;;;;;4992258;28;20050;-83
2023/04/08 09:59:22;;;;;;;0.75;0.75;;;;;;;;;;4987630;28;20053;-82
2023/04/08 10:01:52;;;;;;;0.20;0.10;;;;;;;;;;4976095;28;20499;-81
2023/04/08 10:04:22;;;;;;;0.20;0.10;;;;;;;;;;4960987;28;20140;-83
2023/04/08 10:06:58;;;;;;;0.20;0.10;;;;;;;;;;4987208;28;20042;-82
2023/04/08 10:09:28;;;;;;;0.20;0.13;;;;;;;;;;4957506;28;20059;-82
2023/04/08 10:12:07;;;;;;;0.20;0.20;;;;;;;;;;5002728;28;20519;-83
2023/04/08 10:14:35;;;;;;;0.20;0.10;;;;;;;;;;4989050;23;20077;-83
2023/04/08 10:17:23;;;;;;;0.20;0.10;;;;;;;;;;5026267;28;20532;-81
2023/04/08 10:19:49;;;;;;;0.20;0.10;;;;;;;;;;5011124;28;20136;-83
2023/04/08 10:22:34;;;;;;;0.22;0.22;;;;;;;;;;4980085;28;20419;-82
2023/04/08 10:25:18;;;;;;;0.20;0.20;;;;;;;;;;5010538;23;20081;-82
2023/04/08 10:28:07;;;;;;;0.20;0.10;;;;;;;;;;4992102;28;20466;-83
2023/04/08 10:31:00;;;;;;;0.22;0.22;;;;;;;;;;4994645;28;20042;-82
2023/04/08 10:33:29;;;;;;;0.20;0.10;;;;;;;;;;4977806;28;20077;-83
2023/04/08 10:36:03;;;;;;;0.20;0.10;;;;;;;;;;4975512;28;20046;-81
2023/04/08 10:38:29;;;;;;;0.20;0.10;;;;;;;;;;4998534;28;20435;-82
2023/04/08 10:40:55;;;;;;;0.20;0.10;;;;;;;;;;4980178;28;20057;-83
2023/04/08 10:43:23;;;;;;;0.20;0.10;;;;;;;;;;4984221;28;20089;-81
2023/04/08 10:45:58;;;;;;;2.17;1.35;;;;;;;;;;4994495;28;20112;-86
2023/04/08 10:48:27;;;;;;;0.40;0.20;;;;;;;;;;4991790;28;20046;-82
2023/04/08 10:53:56;;;;;;;1.20;0.80;;;;;;;;;;4990563;28;20507;-82
2023/04/08 10:56:28;;;;;;;0.20;0.03;;;;;;;;;;4974877;28;20042;-82
2023/04/08 10:58:55;;;;;;;0.30;0.30;;;;;;;;;;4994703;28;20573;-81
2023/04/08 11:01:29;;;;;;;0.35;0.22;;;;;;;;;;4993412;28;20319;-79
2023/04/08 11:03:55;;;;;;;0.20;0.10;;;;;;;;;;4990967;23;20266;-77
2023/04/08 11:06:22;;;;;;;0.20;0.10;;;;;;;;;;4976030;28;20159;-76
2023/04/08 11:08:48;;;;;;;3.13;0.20;;;;;;;;;;4993359;28;20039;-77
2023/04/08 11:11:14;;;;;;;0.20;0.10;;;;;;;;;;4997029;28;20038;-77
2023/04/08 11:13:41;;;;;;;0.20;0.10;;;;;;;;;;4975083;28;20049;-80
2023/04/08 11:16:07;;;;;;;0.20;0.10;;;;;;;;;;4987334;28;20151;-78
2023/04/08 11:18:37;;;;;;;0.20;0.20;;;;;;;;;;4975026;28;20195;-78
2023/04/08 11:21:04;;;;;;;0.50;0.35;;;;;;;;;;4989891;28;20095;-78
2023/04/08 11:23:30;;;;;;;0.28;0.20;;;;;;;;;;4977845;28;20072;-77
2023/04/08 11:25:56;;;;;;;0.20;0.20;;;;;;;;;;4980531;28;20118;-76
2023/04/08 11:28:22;;;;;;;0.20;0.10;;;;;;;;;;4977747;28;20479;-78
2023/04/08 11:30:49;;;;;;;0.20;0.17;;;;;;;;;;4970891;28;20044;-78
2023/04/08 11:33:15;;;;;;;0.20;0.10;;;;;;;;;;4986981;28;20037;-77
2023/04/08 11:35:42;;;;;;;0.20;0.20;;;;;;;;;;4990798;28;20068;-77
2023/04/08 11:38:08;;;;;;;0.20;0.10;;;;;;;;;;4973853;28;20112;-77
2023/04/08 11:40:34;;;;;;;0.50;0.50;;;;;;;;;;4987345;28;20091;-78
2023/04/08 11:43:09;;;;;;;0.20;0.10;;;;;;;;;;4972496;28;20045;-77
2023/04/08 11:45:38;;;;;;;0.20;0.20;;;;;;;;;;4986598;28;21560;-76
2023/04/08 11:48:11;;;;;;;0.30;0.30;;;;;;;;;;4988393;28;20041;-77
2023/04/08 11:50:37;;;;;;;0.20;0.10;;;;;;;;;;4972837;28;20041;-77
2023/04/08 11:53:03;;;;;;;0.28;0.20;;;;;;;;;;4977912;28;20034;-77
2023/04/08 11:55:30;;;;;;;0.20;0.10;;;;;;;;;;4972748;28;20049;-77
2023/04/08 11:57:57;;;;;;;0.30;0.30;;;;;;;;;;4987972;28;20037;-77
2023/04/08 12:00:23;;;;;;;0.30;0.15;;;;;;;;;;4974670;28;20050;-77
2023/04/08 12:02:49;;;;;;;0.30;0.20;;;;;;;;;;4972410;28;20403;-77
2023/04/08 12:05:16;;;;;;;1.45;0.90;;;;;;;;;;4987461;28;20113;-78
2023/04/08 12:07:42;;;;;;;0.20;0.10;;;;;;;;;;4974231;28;20046;-77
2023/04/08 12:10:09;;;;;;;0.20;0.10;;;;;;;;;;4968885;28;20105;-78
2023/04/08 12:12:35;;;;;;;1.80;0.43;;;;;;;;;;4989049;28;20072;-76
2023/04/08 12:15:01;;;;;;;0.20;0.17;;;;;;;;;;4981530;28;20585;-78
2023/04/08 12:17:27;;;;;;;0.20;0.10;;;;;;;;;;4992038;28;20055;-77
2023/04/08 12:19:53;;;;;;;0.32;0.32;;;;;;;;;;4989085;28;20052;-77
2023/04/08 12:22:20;;;;;;;0.20;0.10;;;;;;;;;;4990958;28;20046;-76
2023/04/08 12:24:46;;;;;;;0.20;0.20;;;;;;;;;;4992582;28;20030;-77
2023/04/08 12:27:12;;;;;;;0.20;0.20;;;;;;;;;;4978124;28;20570;-77
2023/04/08 12:29:38;;;;;;;0.20;0.15;;;;;;;;;;4975771;28;20046;-78
2023/04/08 12:32:04;;;;;;;0.20;0.10;;;;;;;;;;4976864;28;20100;-77
2023/04/08 12:34:31;;;;;;;0.77;0.40;;;;;;;;;;4992525;28;20049;-77
2023/04/08 12:36:57;;;;;;;0.85;0.28;;;;;;;;;;4994050;28;20066;-77
2023/04/08 12:39:23;;;;;;;0.32;0.32;;;;;;;;;;5005415;28;20046;-78
2023/04/08 12:41:49;;;;;;;2.97;0.47;;;;;;;;;;4980271;28;20125;-77
2023/04/08 12:44:15;;;;;;;0.75;0.60;;;;;;;;;;5001981;28;20470;-76
2023/04/08 12:46:42;;;;;;;0.55;0.25;;;;;;;;;;4984784;28;20337;-78
2023/04/08 12:49:08;;;;;;;0.20;0.10;;;;;;;;;;4980084;28;20065;-77
2023/04/08 12:51:34;;;;;;;0.55;0.55;;;;;;;;;;5003935;28;20068;-77
2023/04/08 12:54:02;;;;;;;0.73;0.40;;;;;;;;;;4986330;28;20072;-78
2023/04/08 12:56:28;;;;;;;0.25;0.25;;;;;;;;;;4988153;28;20050;-76
2023/04/08 12:58:57;;;;;;;0.47;0.30;;;;;;;;;;4982776;28;20026;-77
2023/04/08 13:01:23;;;;;;;0.22;0.22;;;;;;;;;;4991406;28;20043;-76
2023/04/08 13:03:49;;;;;;;0.32;0.32;;;;;;;;;;4984353;28;20045;-77
2023/04/08 13:06:15;;;;;;;0.40;0.30;;;;;;;;;;4989773;28;20030;-77
2023/04/08 13:08:41;;;;;;;0.52;0.30;;;;;;;;;;4981538;28;20050;-77
2023/04/08 13:11:08;;;;;;;0.40;0.20;;;;;;;;;;5000656;28;20041;-78
2023/04/08 13:13:34;;;;;;;0.20;0.17;;;;;;;;;;4986840;28;20041;-77
2023/04/08 13:16:01;;;;;;;0.40;0.40;;;;;;;;;;5004784;28;20077;-77
2023/04/08 13:18:27;;;;;;;0.68;0.52;;;;;;;;;;5000007;28;20056;-76
2023/04/08 13:20:53;;;;;;;0.32;0.32;;;;;;;;;;4983009;28;20041;-77
2023/04/08 13:23:20;;;;;;;1.50;1.23;;;;;;;;;;4983091;28;20042;-76
2023/04/08 13:25:47;;;;;;;0.38;0.38;;;;;;;;;;4983380;28;20041;-77
2023/04/08 13:28:13;;;;;;;1.60;0.55;;;;;;;;;;4982115;28;20034;-78
2023/04/08 13:30:39;;;;;;;0.82;0.60;;;;;;;;;;4986042;28;20108;-76
2023/04/08 13:33:05;;;;;;;0.20;0.20;;;;;;;;;;5002500;28;20503;-77
2023/04/08 13:35:31;;;;;;;4.22;0.38;;;;;;;;;;5001236;28;20049;-77
2023/04/08 13:37:57;;;;;;;0.20;0.15;;;;;;;;;;4981594;28;20085;-76
2023/04/08 13:40:24;;;;;;;0.70;0.57;;;;;;;;;;4992673;28;20041;-76
2023/04/08 13:42:50;;;;;;;0.20;0.15;;;;;;;;;;4979349;28;20054;-77
2023/04/08 13:45:16;;;;;;;0.85;0.75;;;;;;;;;;4999751;28;20463;-75
2023/04/08 13:47:42;;;;;;;0.30;0.20;;;;;;;;;;4989156;28;20666;-76
2023/04/08 13:50:08;;;;;;;1.02;0.60;;;;;;;;;;4987326;28;20164;-77
2023/04/08 13:52:34;;;;;;;0.30;0.28;;;;;;;;;;4979009;28;20041;-77
2023/04/08 13:55:01;;;;;;;0.95;0.50;;;;;;;;;;4982186;28;20049;-76
2023/04/08 13:57:27;;;;;;;0.57;0.30;;;;;;;;;;4995632;28;20041;-78
2023/04/08 13:59:53;;;;;;;0.20;0.10;;;;;;;;;;4993429;28;20045;-78
2023/04/08 14:02:18;;;;;;;0.20;0.10;;;;;;;;;;4983173;28;20038;-77
2023/04/08 14:04:44;;;;;;;0.20;0.10;;;;;;;;;;4993293;28;20041;-76
2023/04/08 14:07:14;;;;;;;0.88;0.30;;;;;;;;;;4992679;28;20041;-77
2023/04/08 14:09:40;;;;;;;0.20;0.20;;;;;;;;;;4979885;28;20057;-76
2023/04/08 14:12:06;;;;;;;0.82;0.73;;;;;;;;;;4978832;28;20034;-77
2023/04/08 14:14:32;;;;;;;0.35;0.32;;;;;;;;;;4976492;28;20062;-76
2023/04/08 14:16:58;;;;;;;0.30;0.30;;;;;;;;;;4993744;28;20038;-76
2023/04/08 14:19:24;;;;;;;0.20;0.10;;;;;;;;;;4994262;28;20057;-75
2023/04/08 14:21:50;;;;;;;0.25;0.17;;;;;;;;;;4996399;28;20038;-76
2023/04/08 14:24:16;;;;;;;0.95;0.50;;;;;;;;;;4992294;28;20169;-77
2023/04/08 14:26:42;;;;;;;0.35;0.35;;;;;;;;;;4981425;28;20599;-76
2023/04/08 14:29:08;;;;;;;0.55;0.35;;;;;;;;;;4993591;28;20454;-76
2023/04/08 14:31:35;;;;;;;0.82;0.55;;;;;;;;;;4973906;28;20041;-76
2023/04/08 14:34:01;;;;;;;0.65;0.65;;;;;;;;;;4998355;28;20053;-76
2023/04/08 14:36:29;;;;;;;1.65;0.85;;;;;;;;;;4981467;28;20072;-77
2023/04/08 14:38:55;;;;;;;0.55;0.40;;;;;;;;;;4987932;28;20083;-78
2023/04/08 14:41:21;;;;;;;0.40;0.40;;;;;;;;;;4995077;28;20033;-77
2023/04/08 14:43:47;;;;;;;0.88;0.60;;;;;;;;;;4981251;28;20379;-77
2023/04/08 14:46:13;;;;;;;0.30;0.30;;;;;;;;;;4993972;28;20254;-77